sensor_id;sensor_type;location;lat;lon;timestamp;temperature;humidity
39621;DHT22;25309;48.686;9.170;2023-09-19T00:00:22;15.40;99.90
39621;DHT22;25309;48.686;9.170;2023-09-19T00:02:53;15.30;99.90
39621;DHT22;25309;48.686;9.170;2023-09-19T00:05:20;15.40;99.90
39621;DHT22;25309;48.686;9.170;2023-09-19T00:07:51;15.30;99.90
39621;DHT22;25309;48.686;9.170;2023-09-19T00:10:21;15.30;99.90
39621;DHT22;25309;48.686;9.170;2023-09-19T00:12:52;15.30;99.90
39621;DHT22;25309;48.686;9.170;2023-09-19T00:15:22;15.30;99.90
39621;DHT22;25309;48.686;9.170;2023-09-19T00:17:49;15.30;99.90
39621;DHT22;25309;48.686;9.170;2023-09-19T00:20:19;15.30;99.90
39621;DHT22;25309;48.686;9.170;2023-09-19T00:22:46;15.30;99.90
39621;DHT22;25309;48.686;9.170;2023-09-19T00:25:13;15.30;99.90
39621;DHT22;25309;48.686;9.170;2023-09-19T00:27:42;15.30;99.90
39621;DHT22;25309;48.686;9.170;2023-09-19T00:30:12;15.30;99.90
39621;DHT22;25309;48.686;9.170;2023-09-19T00:32:50;15.30;99.90
39621;DHT22;25309;48.686;9.170;2023-09-19T00:35:18;15.30;99.90
39621;DHT22;25309;48.686;9.170;2023-09-19T00:37:45;15.30;99.90
39621;DHT22;25309;48.686;9.170;2023-09-19T00:40:13;15.30;99.90
39621;DHT22;25309;48.686;9.170;2023-09-19T00:42:42;15.30;99.90
39621;DHT22;25309;48.686;9.170;2023-09-19T00:45:11;15.40;99.90
39621;DHT22;25309;48.686;9.170;2023-09-19T00:47:39;15.40;99.90
39621;DHT22;25309;48.686;9.170;2023-09-19T00:50:08;15.40;99.90
39621;DHT22;25309;48.686;9.170;2023-09-19T00:52:37;15.40;99.90
39621;DHT22;25309;48.686;9.170;2023-09-19T00:55:06;15.40;99.90
39621;DHT22;25309;48.686;9.170;2023-09-19T00:57:34;15.40;99.90
39621;DHT22;25309;48.686;9.170;2023-09-19T01:00:02;15.40;99.90
39621;DHT22;25309;48.686;9.170;2023-09-19T01:02:35;15.40;99.90
39621;DHT22;25309;48.686;9.170;2023-09-19T01:05:02;15.40;99.90
39621;DHT22;25309;48.686;9.170;2023-09-19T01:07:32;15.40;99.90
39621;DHT22;25309;48.686;9.170;2023-09-19T01:10:02;15.40;99.90
39621;DHT22;25309;48.686;9.170;2023-09-19T01:12:43;15.40;99.90
39621;DHT22;25309;48.686;9.170;2023-09-19T01:15:18;15.40;99.90
39621;DHT22;25309;48.686;9.170;2023-09-19T01:17:57;15.40;99.90
39621;DHT22;25309;48.686;9.170;2023-09-19T01:20:33;15.40;99.90
39621;DHT22;25309;48.686;9.170;2023-09-19T01:23:11;15.40;99.90
39621;DHT22;25309;48.686;9.170;2023-09-19T01:26:05;15.40;99.90
39621;DHT22;25309;48.686;9.170;2023-09-19T01:28:51;15.40;99.90
39621;DHT22;25309;48.686;9.170;2023-09-19T01:31:24;15.40;99.90
39621;DHT22;25309;48.686;9.170;2023-09-19T01:33:57;15.30;99.90
39621;DHT22;25309;48.686;9.170;2023-09-19T01:36:30;15.40;99.90
39621;DHT22;25309;48.686;9.170;2023-09-19T01:38:58;15.30;99.90
39621;DHT22;25309;48.686;9.170;2023-09-19T01:41:38;15.30;99.90
39621;DHT22;25309;48.686;9.170;2023-09-19T01:44:09;15.40;99.90
39621;DHT22;25309;48.686;9.170;2023-09-19T01:46:40;15.40;99.90
39621;DHT22;25309;48.686;9.170;2023-09-19T01:49:18;15.40;99.90
39621;DHT22;25309;48.686;9.170;2023-09-19T01:51:52;15.40;99.90
39621;DHT22;25309;48.686;9.170;2023-09-19T01:54:28;15.40;99.90
39621;DHT22;25309;48.686;9.170;2023-09-19T01:57:01;15.40;99.90
39621;DHT22;25309;48.686;9.170;2023-09-19T01:59:35;15.40;99.90
39621;DHT22;25309;48.686;9.170;2023-09-19T02:02:06;15.40;99.90
39621;DHT22;25309;48.686;9.170;2023-09-19T02:04:35;15.40;99.90
39621;DHT22;25309;48.686;9.170;2023-09-19T02:07:03;15.40;99.90
39621;DHT22;25309;48.686;9.170;2023-09-19T02:09:32;15.40;99.90
39621;DHT22;25309;48.686;9.170;2023-09-19T02:12:02;15.40;99.90
39621;DHT22;25309;48.686;9.170;2023-09-19T02:14:31;15.40;99.90
39621;DHT22;25309;48.686;9.170;2023-09-19T02:16:58;15.40;99.90
39621;DHT22;25309;48.686;9.170;2023-09-19T02:19:28;15.40;99.90
39621;DHT22;25309;48.686;9.170;2023-09-19T02:21:56;15.40;99.90
39621;DHT22;25309;48.686;9.170;2023-09-19T02:24:23;15.40;99.90
39621;DHT22;25309;48.686;9.170;2023-09-19T02:26:51;15.40;99.90
39621;DHT22;25309;48.686;9.170;2023-09-19T02:29:18;15.40;99.90
39621;DHT22;25309;48.686;9.170;2023-09-19T02:31:45;15.40;99.90
39621;DHT22;25309;48.686;9.170;2023-09-19T02:34:14;15.40;99.90
39621;DHT22;25309;48.686;9.170;2023-09-19T02:36:44;15.30;99.90
39621;DHT22;25309;48.686;9.170;2023-09-19T02:39:11;15.30;99.90
39621;DHT22;25309;48.686;9.170;2023-09-19T02:41:38;15.30;99.90
39621;DHT22;25309;48.686;9.170;2023-09-19T02:44:05;15.30;99.90
39621;DHT22;25309;48.686;9.170;2023-09-19T02:46:34;15.30;99.90
39621;DHT22;25309;48.686;9.170;2023-09-19T02:49:03;15.20;99.90
39621;DHT22;25309;48.686;9.170;2023-09-19T02:51:33;15.20;99.90
39621;DHT22;25309;48.686;9.170;2023-09-19T02:54:02;15.10;99.90
39621;DHT22;25309;48.686;9.170;2023-09-19T02:56:32;15.10;99.90
39621;DHT22;25309;48.686;9.170;2023-09-19T02:58:59;15.00;99.90
39621;DHT22;25309;48.686;9.170;2023-09-19T03:01:27;15.00;99.90
39621;DHT22;25309;48.686;9.170;2023-09-19T03:03:58;15.00;99.90
39621;DHT22;25309;48.686;9.170;2023-09-19T03:06:25;15.00;99.90
39621;DHT22;25309;48.686;9.170;2023-09-19T03:08:52;15.00;99.90
39621;DHT22;25309;48.686;9.170;2023-09-19T03:11:23;15.10;99.90
39621;DHT22;25309;48.686;9.170;2023-09-19T03:13:53;15.10;99.90
39621;DHT22;25309;48.686;9.170;2023-09-19T03:16:21;15.20;99.90
39621;DHT22;25309;48.686;9.170;2023-09-19T03:18:52;15.20;99.90
39621;DHT22;25309;48.686;9.170;2023-09-19T03:21:19;15.20;99.90
39621;DHT22;25309;48.686;9.170;2023-09-19T03:23:46;15.30;99.90
39621;DHT22;25309;48.686;9.170;2023-09-19T03:26:14;15.30;99.90
39621;DHT22;25309;48.686;9.170;2023-09-19T03:28:44;15.40;99.90
39621;DHT22;25309;48.686;9.170;2023-09-19T03:31:13;15.40;99.90
39621;DHT22;25309;48.686;9.170;2023-09-19T03:33:40;15.40;99.90
39621;DHT22;25309;48.686;9.170;2023-09-19T03:36:07;15.40;99.90
39621;DHT22;25309;48.686;9.170;2023-09-19T03:38:35;15.40;99.90
39621;DHT22;25309;48.686;9.170;2023-09-19T03:41:02;15.40;99.90
39621;DHT22;25309;48.686;9.170;2023-09-19T03:43:29;15.40;99.90
39621;DHT22;25309;48.686;9.170;2023-09-19T03:46:01;15.40;99.90
39621;DHT22;25309;48.686;9.170;2023-09-19T03:48:30;15.50;99.90
39621;DHT22;25309;48.686;9.170;2023-09-19T03:50:58;15.50;99.90
39621;DHT22;25309;48.686;9.170;2023-09-19T03:53:25;15.50;99.90
39621;DHT22;25309;48.686;9.170;2023-09-19T03:55:52;15.50;99.90
39621;DHT22;25309;48.686;9.170;2023-09-19T03:58:19;15.40;99.90
39621;DHT22;25309;48.686;9.170;2023-09-19T04:00:47;15.40;99.90
39621;DHT22;25309;48.686;9.170;2023-09-19T04:03:17;15.30;99.90
39621;DHT22;25309;48.686;9.170;2023-09-19T04:05:47;15.30;99.90
39621;DHT22;25309;48.686;9.170;2023-09-19T04:08:14;15.20;99.90
39621;DHT22;25309;48.686;9.170;2023-09-19T04:10:42;15.20;99.90
39621;DHT22;25309;48.686;9.170;2023-09-19T04:13:10;15.10;99.90
39621;DHT22;25309;48.686;9.170;2023-09-19T04:15:37;15.00;99.90
39621;DHT22;25309;48.686;9.170;2023-09-19T04:18:04;14.90;99.90
39621;DHT22;25309;48.686;9.170;2023-09-19T04:20:34;14.90;99.90
39621;DHT22;25309;48.686;9.170;2023-09-19T04:23:01;14.90;99.90
39621;DHT22;25309;48.686;9.170;2023-09-19T04:25:28;14.90;99.90
39621;DHT22;25309;48.686;9.170;2023-09-19T04:27:55;14.90;99.90
39621;DHT22;25309;48.686;9.170;2023-09-19T04:30:22;14.90;99.90
39621;DHT22;25309;48.686;9.170;2023-09-19T04:32:49;14.90;99.90
39621;DHT22;25309;48.686;9.170;2023-09-19T04:35:18;14.90;99.90
39621;DHT22;25309;48.686;9.170;2023-09-19T04:37:47;15.00;99.90
39621;DHT22;25309;48.686;9.170;2023-09-19T04:40:15;15.00;99.90
39621;DHT22;25309;48.686;9.170;2023-09-19T04:42:44;15.00;99.90
39621;DHT22;25309;48.686;9.170;2023-09-19T04:45:12;15.10;99.90
39621;DHT22;25309;48.686;9.170;2023-09-19T04:47:39;15.10;99.90
39621;DHT22;25309;48.686;9.170;2023-09-19T04:50:09;15.10;99.90
39621;DHT22;25309;48.686;9.170;2023-09-19T04:52:40;15.00;99.90
39621;DHT22;25309;48.686;9.170;2023-09-19T04:55:10;15.00;99.90
39621;DHT22;25309;48.686;9.170;2023-09-19T04:57:37;15.10;99.90
39621;DHT22;25309;48.686;9.170;2023-09-19T05:00:06;15.10;99.90
39621;DHT22;25309;48.686;9.170;2023-09-19T05:02:39;15.20;99.90
39621;DHT22;25309;48.686;9.170;2023-09-19T05:05:07;15.20;99.90
39621;DHT22;25309;48.686;9.170;2023-09-19T05:07:35;15.30;99.90
39621;DHT22;25309;48.686;9.170;2023-09-19T05:10:02;15.30;99.90
39621;DHT22;25309;48.686;9.170;2023-09-19T05:12:33;15.30;99.90
39621;DHT22;25309;48.686;9.170;2023-09-19T05:15:02;15.40;99.90
39621;DHT22;25309;48.686;9.170;2023-09-19T05:17:29;15.40;99.90
39621;DHT22;25309;48.686;9.170;2023-09-19T05:19:57;15.40;99.90
39621;DHT22;25309;48.686;9.170;2023-09-19T05:22:26;15.40;99.90
39621;DHT22;25309;48.686;9.170;2023-09-19T05:24:53;15.40;99.90
39621;DHT22;25309;48.686;9.170;2023-09-19T05:27:20;15.30;99.90
39621;DHT22;25309;48.686;9.170;2023-09-19T05:29:50;15.10;99.90
39621;DHT22;25309;48.686;9.170;2023-09-19T05:32:19;15.10;99.90
39621;DHT22;25309;48.686;9.170;2023-09-19T05:34:46;15.10;99.90
39621;DHT22;25309;48.686;9.170;2023-09-19T05:37:14;15.10;99.90
39621;DHT22;25309;48.686;9.170;2023-09-19T05:39:43;15.00;99.90
39621;DHT22;25309;48.686;9.170;2023-09-19T05:42:10;15.00;99.90
39621;DHT22;25309;48.686;9.170;2023-09-19T05:44:37;15.00;99.90
39621;DHT22;25309;48.686;9.170;2023-09-19T05:47:06;15.00;99.90
39621;DHT22;25309;48.686;9.170;2023-09-19T05:49:36;15.00;99.90
39621;DHT22;25309;48.686;9.170;2023-09-19T05:52:07;15.00;99.90
39621;DHT22;25309;48.686;9.170;2023-09-19T05:54:34;15.00;99.90
39621;DHT22;25309;48.686;9.170;2023-09-19T05:57:01;15.10;99.90
39621;DHT22;25309;48.686;9.170;2023-09-19T05:59:28;15.10;99.90
39621;DHT22;25309;48.686;9.170;2023-09-19T06:01:55;15.20;99.90
39621;DHT22;25309;48.686;9.170;2023-09-19T06:04:24;15.20;99.90
39621;DHT22;25309;48.686;9.170;2023-09-19T06:06:52;15.20;99.90
39621;DHT22;25309;48.686;9.170;2023-09-19T06:09:19;15.40;99.90
39621;DHT22;25309;48.686;9.170;2023-09-19T06:11:49;15.40;99.90
39621;DHT22;25309;48.686;9.170;2023-09-19T06:14:18;15.40;99.90
39621;DHT22;25309;48.686;9.170;2023-09-19T06:16:45;15.50;99.90
39621;DHT22;25309;48.686;9.170;2023-09-19T06:19:13;15.60;99.90
39621;DHT22;25309;48.686;9.170;2023-09-19T06:21:42;15.60;99.90
39621;DHT22;25309;48.686;9.170;2023-09-19T06:24:10;15.60;99.90
39621;DHT22;25309;48.686;9.170;2023-09-19T06:26:38;15.50;99.90
39621;DHT22;25309;48.686;9.170;2023-09-19T06:29:05;15.50;99.90
39621;DHT22;25309;48.686;9.170;2023-09-19T06:31:34;15.40;99.90
39621;DHT22;25309;48.686;9.170;2023-09-19T06:34:01;15.40;99.90
39621;DHT22;25309;48.686;9.170;2023-09-19T06:36:30;15.40;99.90
39621;DHT22;25309;48.686;9.170;2023-09-19T06:38:58;15.50;99.90
39621;DHT22;25309;48.686;9.170;2023-09-19T06:41:26;15.50;99.90
39621;DHT22;25309;48.686;9.170;2023-09-19T06:43:53;15.60;99.90
39621;DHT22;25309;48.686;9.170;2023-09-19T06:46:20;15.70;99.90
39621;DHT22;25309;48.686;9.170;2023-09-19T06:48:47;15.80;99.90
39621;DHT22;25309;48.686;9.170;2023-09-19T06:51:15;15.90;99.90
39621;DHT22;25309;48.686;9.170;2023-09-19T06:53:43;16.00;99.90
39621;DHT22;25309;48.686;9.170;2023-09-19T06:56:11;16.10;99.90
39621;DHT22;25309;48.686;9.170;2023-09-19T06:58:38;16.10;99.90
39621;DHT22;25309;48.686;9.170;2023-09-19T07:01:05;16.30;99.90
39621;DHT22;25309;48.686;9.170;2023-09-19T07:03:32;16.40;99.90
39621;DHT22;25309;48.686;9.170;2023-09-19T07:06:00;16.60;99.90
39621;DHT22;25309;48.686;9.170;2023-09-19T07:08:27;16.70;99.90
39621;DHT22;25309;48.686;9.170;2023-09-19T07:10:56;16.90;99.90
39621;DHT22;25309;48.686;9.170;2023-09-19T07:13:24;17.00;99.90
39621;DHT22;25309;48.686;9.170;2023-09-19T07:15:52;17.00;99.90
39621;DHT22;25309;48.686;9.170;2023-09-19T07:18:19;17.10;99.90
39621;DHT22;25309;48.686;9.170;2023-09-19T07:20:47;17.20;99.90
39621;DHT22;25309;48.686;9.170;2023-09-19T07:23:17;17.20;99.90
39621;DHT22;25309;48.686;9.170;2023-09-19T07:25:44;17.30;99.90
39621;DHT22;25309;48.686;9.170;2023-09-19T07:28:13;17.40;99.90
39621;DHT22;25309;48.686;9.170;2023-09-19T07:30:41;17.40;99.90
39621;DHT22;25309;48.686;9.170;2023-09-19T07:33:08;17.50;99.90
39621;DHT22;25309;48.686;9.170;2023-09-19T07:35:38;17.60;99.90
39621;DHT22;25309;48.686;9.170;2023-09-19T07:38:08;17.70;99.90
39621;DHT22;25309;48.686;9.170;2023-09-19T07:40:37;17.90;99.90
39621;DHT22;25309;48.686;9.170;2023-09-19T07:43:04;18.10;99.90
39621;DHT22;25309;48.686;9.170;2023-09-19T07:45:32;18.40;99.90
39621;DHT22;25309;48.686;9.170;2023-09-19T07:48:00;18.60;99.90
39621;DHT22;25309;48.686;9.170;2023-09-19T07:50:50;19.00;99.90
39621;DHT22;25309;48.686;9.170;2023-09-19T07:53:17;19.60;99.90
39621;DHT22;25309;48.686;9.170;2023-09-19T07:55:44;20.00;99.90
39621;DHT22;25309;48.686;9.170;2023-09-19T07:58:15;20.30;99.90
39621;DHT22;25309;48.686;9.170;2023-09-19T08:00:42;20.60;99.90
39621;DHT22;25309;48.686;9.170;2023-09-19T08:03:11;20.90;99.90
39621;DHT22;25309;48.686;9.170;2023-09-19T08:05:44;21.20;99.90
39621;DHT22;25309;48.686;9.170;2023-09-19T08:08:12;21.50;99.90
39621;DHT22;25309;48.686;9.170;2023-09-19T08:10:42;22.00;99.90
39621;DHT22;25309;48.686;9.170;2023-09-19T08:13:12;22.60;99.90
39621;DHT22;25309;48.686;9.170;2023-09-19T08:15:43;23.10;99.90
39621;DHT22;25309;48.686;9.170;2023-09-19T08:18:13;23.60;99.90
39621;DHT22;25309;48.686;9.170;2023-09-19T08:20:40;23.90;99.90
39621;DHT22;25309;48.686;9.170;2023-09-19T08:23:09;24.10;99.90
39621;DHT22;25309;48.686;9.170;2023-09-19T08:25:36;24.10;99.90
39621;DHT22;25309;48.686;9.170;2023-09-19T08:28:05;24.00;99.90
39621;DHT22;25309;48.686;9.170;2023-09-19T08:30:35;23.60;99.90
39621;DHT22;25309;48.686;9.170;2023-09-19T08:33:07;23.50;99.90
39621;DHT22;25309;48.686;9.170;2023-09-19T08:35:35;23.80;99.90
39621;DHT22;25309;48.686;9.170;2023-09-19T08:38:04;23.60;99.90
39621;DHT22;25309;48.686;9.170;2023-09-19T08:40:33;23.10;99.90
39621;DHT22;25309;48.686;9.170;2023-09-19T08:43:03;22.60;99.90
39621;DHT22;25309;48.686;9.170;2023-09-19T08:45:30;22.20;99.90
39621;DHT22;25309;48.686;9.170;2023-09-19T08:48:05;21.70;99.90
39621;DHT22;25309;48.686;9.170;2023-09-19T08:50:47;21.30;99.90
39621;DHT22;25309;48.686;9.170;2023-09-19T08:53:25;21.10;99.90
39621;DHT22;25309;48.686;9.170;2023-09-19T08:55:54;21.10;99.90
39621;DHT22;25309;48.686;9.170;2023-09-19T08:58:27;21.80;99.90
39621;DHT22;25309;48.686;9.170;2023-09-19T09:00:58;22.30;99.90
39621;DHT22;25309;48.686;9.170;2023-09-19T09:03:32;23.00;99.90
39621;DHT22;25309;48.686;9.170;2023-09-19T09:06:02;23.90;99.90
39621;DHT22;25309;48.686;9.170;2023-09-19T09:08:31;25.10;99.90
39621;DHT22;25309;48.686;9.170;2023-09-19T09:10:59;26.10;99.90
39621;DHT22;25309;48.686;9.170;2023-09-19T09:13:26;25.10;99.90
39621;DHT22;25309;48.686;9.170;2023-09-19T09:15:53;23.90;99.90
39621;DHT22;25309;48.686;9.170;2023-09-19T09:18:21;22.50;99.90
39621;DHT22;25309;48.686;9.170;2023-09-19T09:20:49;21.90;99.90
39621;DHT22;25309;48.686;9.170;2023-09-19T09:23:17;21.40;99.90
39621;DHT22;25309;48.686;9.170;2023-09-19T09:25:48;21.20;99.90
39621;DHT22;25309;48.686;9.170;2023-09-19T09:28:20;21.00;99.90
39621;DHT22;25309;48.686;9.170;2023-09-19T09:30:47;21.70;99.90
39621;DHT22;25309;48.686;9.170;2023-09-19T09:33:15;22.40;99.90
39621;DHT22;25309;48.686;9.170;2023-09-19T09:35:50;22.70;99.90
39621;DHT22;25309;48.686;9.170;2023-09-19T09:38:23;22.40;99.90
39621;DHT22;25309;48.686;9.170;2023-09-19T09:40:55;22.20;99.90
39621;DHT22;25309;48.686;9.170;2023-09-19T09:43:32;21.40;99.90
39621;DHT22;25309;48.686;9.170;2023-09-19T09:46:11;20.70;99.90
39621;DHT22;25309;48.686;9.170;2023-09-19T09:48:47;20.30;99.90
39621;DHT22;25309;48.686;9.170;2023-09-19T09:51:34;20.00;99.90
39621;DHT22;25309;48.686;9.170;2023-09-19T09:54:11;19.90;99.90
39621;DHT22;25309;48.686;9.170;2023-09-19T09:56:52;19.90;99.90
39621;DHT22;25309;48.686;9.170;2023-09-19T09:59:21;20.10;99.90
39621;DHT22;25309;48.686;9.170;2023-09-19T10:01:51;20.50;99.90
39621;DHT22;25309;48.686;9.170;2023-09-19T10:04:29;21.80;99.90
39621;DHT22;25309;48.686;9.170;2023-09-19T10:07:03;22.80;99.90
39621;DHT22;25309;48.686;9.170;2023-09-19T10:09:46;23.50;99.90
39621;DHT22;25309;48.686;9.170;2023-09-19T10:12:15;23.90;99.50
39621;DHT22;25309;48.686;9.170;2023-09-19T10:14:44;23.90;99.90
39621;DHT22;25309;48.686;9.170;2023-09-19T10:17:16;23.70;99.10
39621;DHT22;25309;48.686;9.170;2023-09-19T10:19:54;24.10;98.50
39621;DHT22;25309;48.686;9.170;2023-09-19T10:22:26;24.80;97.50
39621;DHT22;25309;48.686;9.170;2023-09-19T10:24:55;25.20;96.60
39621;DHT22;25309;48.686;9.170;2023-09-19T10:27:29;25.30;95.90
39621;DHT22;25309;48.686;9.170;2023-09-19T10:30:06;25.20;93.40
39621;DHT22;25309;48.686;9.170;2023-09-19T10:32:35;25.10;93.90
39621;DHT22;25309;48.686;9.170;2023-09-19T10:35:05;25.30;93.00
39621;DHT22;25309;48.686;9.170;2023-09-19T10:37:34;25.20;93.10
39621;DHT22;25309;48.686;9.170;2023-09-19T10:40:04;25.20;94.30
39621;DHT22;25309;48.686;9.170;2023-09-19T10:42:38;25.50;92.70
39621;DHT22;25309;48.686;9.170;2023-09-19T10:45:07;25.30;93.10
39621;DHT22;25309;48.686;9.170;2023-09-19T10:47:39;24.90;93.00
39621;DHT22;25309;48.686;9.170;2023-09-19T10:50:08;24.70;94.30
39621;DHT22;25309;48.686;9.170;2023-09-19T10:52:39;25.00;93.20
39621;DHT22;25309;48.686;9.170;2023-09-19T10:55:09;25.20;93.70
39621;DHT22;25309;48.686;9.170;2023-09-19T10:57:44;25.10;92.30
39621;DHT22;25309;48.686;9.170;2023-09-19T11:00:11;24.50;93.60
39621;DHT22;25309;48.686;9.170;2023-09-19T11:03:17;24.30;94.20
39621;DHT22;25309;48.686;9.170;2023-09-19T11:06:04;24.80;93.50
39621;DHT22;25309;48.686;9.170;2023-09-19T11:08:54;25.00;92.70
39621;DHT22;25309;48.686;9.170;2023-09-19T11:11:47;25.30;92.90
39621;DHT22;25309;48.686;9.170;2023-09-19T11:14:39;25.50;91.40
39621;DHT22;25309;48.686;9.170;2023-09-19T11:17:34;25.60;92.20
39621;DHT22;25309;48.686;9.170;2023-09-19T11:20:22;25.90;91.00
39621;DHT22;25309;48.686;9.170;2023-09-19T11:23:18;25.60;91.30
39621;DHT22;25309;48.686;9.170;2023-09-19T11:25:50;25.40;91.30
39621;DHT22;25309;48.686;9.170;2023-09-19T11:28:30;25.50;91.50
39621;DHT22;25309;48.686;9.170;2023-09-19T11:30:59;25.60;91.40
39621;DHT22;25309;48.686;9.170;2023-09-19T11:33:45;25.30;91.60
39621;DHT22;25309;48.686;9.170;2023-09-19T11:36:14;24.90;91.80
39621;DHT22;25309;48.686;9.170;2023-09-19T11:38:58;24.40;92.60
39621;DHT22;25309;48.686;9.170;2023-09-19T11:41:38;24.00;92.90
39621;DHT22;25309;48.686;9.170;2023-09-19T11:44:34;23.90;93.10
39621;DHT22;25309;48.686;9.170;2023-09-19T11:47:02;23.90;93.30
39621;DHT22;25309;48.686;9.170;2023-09-19T11:49:31;23.70;93.10
39621;DHT22;25309;48.686;9.170;2023-09-19T11:51:59;24.00;92.80
39621;DHT22;25309;48.686;9.170;2023-09-19T11:54:32;24.20;92.80
39621;DHT22;25309;48.686;9.170;2023-09-19T11:57:00;24.60;93.10
39621;DHT22;25309;48.686;9.170;2023-09-19T11:59:28;25.10;92.40
39621;DHT22;25309;48.686;9.170;2023-09-19T12:01:58;25.30;91.80
39621;DHT22;25309;48.686;9.170;2023-09-19T12:04:34;25.60;92.10
39621;DHT22;25309;48.686;9.170;2023-09-19T12:07:06;25.60;91.20
39621;DHT22;25309;48.686;9.170;2023-09-19T12:09:39;25.20;92.00
39621;DHT22;25309;48.686;9.170;2023-09-19T12:12:07;25.10;92.00
39621;DHT22;25309;48.686;9.170;2023-09-19T12:14:35;24.90;92.40
39621;DHT22;25309;48.686;9.170;2023-09-19T12:17:04;24.80;92.50
39621;DHT22;25309;48.686;9.170;2023-09-19T12:19:31;24.80;92.20
39621;DHT22;25309;48.686;9.170;2023-09-19T12:21:59;24.90;91.80
39621;DHT22;25309;48.686;9.170;2023-09-19T12:24:32;25.30;92.20
39621;DHT22;25309;48.686;9.170;2023-09-19T12:27:03;25.70;91.10
39621;DHT22;25309;48.686;9.170;2023-09-19T12:29:32;25.90;90.40
39621;DHT22;25309;48.686;9.170;2023-09-19T12:32:09;26.10;90.70
39621;DHT22;25309;48.686;9.170;2023-09-19T12:34:37;26.40;90.50
39621;DHT22;25309;48.686;9.170;2023-09-19T12:37:11;26.60;89.50
39621;DHT22;25309;48.686;9.170;2023-09-19T12:40:04;26.60;89.00
39621;DHT22;25309;48.686;9.170;2023-09-19T12:42:42;26.50;90.00
39621;DHT22;25309;48.686;9.170;2023-09-19T12:45:09;26.50;90.20
39621;DHT22;25309;48.686;9.170;2023-09-19T12:47:38;26.60;89.00
39621;DHT22;25309;48.686;9.170;2023-09-19T12:50:11;26.50;90.00
39621;DHT22;25309;48.686;9.170;2023-09-19T12:52:43;26.70;89.60
39621;DHT22;25309;48.686;9.170;2023-09-19T12:55:22;26.60;88.60
39621;DHT22;25309;48.686;9.170;2023-09-19T12:58:02;26.70;88.90
39621;DHT22;25309;48.686;9.170;2023-09-19T13:00:33;26.80;88.80
39621;DHT22;25309;48.686;9.170;2023-09-19T13:03:16;26.80;87.70
39621;DHT22;25309;48.686;9.170;2023-09-19T13:05:50;26.80;88.80
39621;DHT22;25309;48.686;9.170;2023-09-19T13:08:28;26.90;89.40
39621;DHT22;25309;48.686;9.170;2023-09-19T13:11:03;26.80;88.40
39621;DHT22;25309;48.686;9.170;2023-09-19T13:13:34;26.40;89.40
39621;DHT22;25309;48.686;9.170;2023-09-19T13:16:03;26.20;89.70
39621;DHT22;25309;48.686;9.170;2023-09-19T13:18:50;26.10;90.20
39621;DHT22;25309;48.686;9.170;2023-09-19T13:21:27;26.10;90.70
39621;DHT22;25309;48.686;9.170;2023-09-19T13:23:55;26.40;90.30
39621;DHT22;25309;48.686;9.170;2023-09-19T13:26:26;26.70;89.70
39621;DHT22;25309;48.686;9.170;2023-09-19T13:28:54;26.80;87.90
39621;DHT22;25309;48.686;9.170;2023-09-19T13:31:21;26.40;88.10
39621;DHT22;25309;48.686;9.170;2023-09-19T13:33:52;26.40;88.60
39621;DHT22;25309;48.686;9.170;2023-09-19T13:36:19;26.50;88.60
39621;DHT22;25309;48.686;9.170;2023-09-19T13:38:46;26.60;87.10
39621;DHT22;25309;48.686;9.170;2023-09-19T13:41:15;26.70;87.90
39621;DHT22;25309;48.686;9.170;2023-09-19T13:43:43;26.70;86.60
39621;DHT22;25309;48.686;9.170;2023-09-19T13:46:15;26.80;87.60
39621;DHT22;25309;48.686;9.170;2023-09-19T13:48:43;27.00;85.90
39621;DHT22;25309;48.686;9.170;2023-09-19T13:51:11;27.20;86.80
39621;DHT22;25309;48.686;9.170;2023-09-19T13:53:38;27.10;86.30
39621;DHT22;25309;48.686;9.170;2023-09-19T13:56:05;26.90;85.30
39621;DHT22;25309;48.686;9.170;2023-09-19T13:58:33;26.60;85.00
39621;DHT22;25309;48.686;9.170;2023-09-19T14:01:00;26.40;84.90
39621;DHT22;25309;48.686;9.170;2023-09-19T14:03:28;26.20;85.30
39621;DHT22;25309;48.686;9.170;2023-09-19T14:05:55;26.10;85.40
39621;DHT22;25309;48.686;9.170;2023-09-19T14:08:24;25.90;85.30
39621;DHT22;25309;48.686;9.170;2023-09-19T14:10:51;26.00;85.80
39621;DHT22;25309;48.686;9.170;2023-09-19T14:13:18;26.10;85.80
39621;DHT22;25309;48.686;9.170;2023-09-19T14:15:47;26.30;85.50
39621;DHT22;25309;48.686;9.170;2023-09-19T14:18:14;26.40;84.60
39621;DHT22;25309;48.686;9.170;2023-09-19T14:20:41;26.40;84.10
39621;DHT22;25309;48.686;9.170;2023-09-19T14:23:08;26.00;84.20
39621;DHT22;25309;48.686;9.170;2023-09-19T14:25:36;25.80;84.90
39621;DHT22;25309;48.686;9.170;2023-09-19T14:28:05;25.70;84.40
39621;DHT22;25309;48.686;9.170;2023-09-19T14:30:34;25.50;85.50
39621;DHT22;25309;48.686;9.170;2023-09-19T14:33:04;25.30;86.20
39621;DHT22;25309;48.686;9.170;2023-09-19T14:35:32;25.10;87.60
39621;DHT22;25309;48.686;9.170;2023-09-19T14:37:59;25.10;86.40
39621;DHT22;25309;48.686;9.170;2023-09-19T14:40:26;25.00;85.40
39621;DHT22;25309;48.686;9.170;2023-09-19T14:42:55;25.00;86.90
39621;DHT22;25309;48.686;9.170;2023-09-19T14:45:22;25.00;86.70
39621;DHT22;25309;48.686;9.170;2023-09-19T14:47:50;25.00;86.10
39621;DHT22;25309;48.686;9.170;2023-09-19T14:50:21;24.80;86.60
39621;DHT22;25309;48.686;9.170;2023-09-19T14:52:49;24.70;87.10
39621;DHT22;25309;48.686;9.170;2023-09-19T14:55:18;24.60;87.00
39621;DHT22;25309;48.686;9.170;2023-09-19T14:57:49;24.60;88.10
39621;DHT22;25309;48.686;9.170;2023-09-19T15:00:19;24.70;86.20
39621;DHT22;25309;48.686;9.170;2023-09-19T15:02:48;24.50;86.50
39621;DHT22;25309;48.686;9.170;2023-09-19T15:05:17;24.40;87.00
39621;DHT22;25309;48.686;9.170;2023-09-19T15:07:46;24.30;87.40
39621;DHT22;25309;48.686;9.170;2023-09-19T15:10:13;24.40;87.50
39621;DHT22;25309;48.686;9.170;2023-09-19T15:12:40;24.40;87.20
39621;DHT22;25309;48.686;9.170;2023-09-19T15:15:08;24.30;87.40
39621;DHT22;25309;48.686;9.170;2023-09-19T15:17:37;24.10;88.30
39621;DHT22;25309;48.686;9.170;2023-09-19T15:20:05;24.10;87.70
39621;DHT22;25309;48.686;9.170;2023-09-19T15:22:33;24.10;87.10
39621;DHT22;25309;48.686;9.170;2023-09-19T15:25:01;24.10;87.40
39621;DHT22;25309;48.686;9.170;2023-09-19T15:27:29;24.10;87.60
39621;DHT22;25309;48.686;9.170;2023-09-19T15:29:58;24.00;88.70
39621;DHT22;25309;48.686;9.170;2023-09-19T15:32:26;24.00;88.50
39621;DHT22;25309;48.686;9.170;2023-09-19T15:34:54;24.10;88.70
39621;DHT22;25309;48.686;9.170;2023-09-19T15:37:22;24.00;88.20
39621;DHT22;25309;48.686;9.170;2023-09-19T15:39:49;23.90;88.90
39621;DHT22;25309;48.686;9.170;2023-09-19T15:42:16;23.80;89.20
39621;DHT22;25309;48.686;9.170;2023-09-19T15:44:43;23.80;89.70
39621;DHT22;25309;48.686;9.170;2023-09-19T15:47:11;23.80;89.90
39621;DHT22;25309;48.686;9.170;2023-09-19T15:49:38;23.60;89.60